Okarche, Oklahoma
Current Conditions -  °F | °C
As of 6:55 AM on Tuesday 21 Oct 2014 (Local Time) from KRQO Reporting Station
Clear Clear  
Wind Chill: 59°   Ceiling: Unl
Heat Index: 59°   Visibility: 7mi
Dew Point: 55°   Wind: 5mph
Humidity: 88%   Direction: 180°S
Pressure: 30.07"   Gusts: NA
Location:  35.73°N, 97.98°W
Report Text: KRQO 211155Z AUTO 18004KT 7SM CLR 15/13 A3007 RMK AO2
Loading
Personal Weather Stations






























Interactive Weather Map
Tropical Storm Tracking
New forecast layout! Learn more

10-Day Weather Forecast

Advertisements
Track Severe Weather on mobile